createdAt,value
2022-09-13T00:03:42.732Z,95.82
2022-09-13T00:14:04.315Z,96.73
2022-09-13T00:24:25.792Z,100.00
2022-09-13T00:34:47.270Z,100.00
2022-09-13T00:45:12.156Z,100.00
2022-09-13T00:55:44.333Z,99.71
2022-09-13T01:06:11.616Z,100.00
2022-09-13T01:16:33.272Z,100.00
2022-09-13T01:27:05.061Z,100.00
2022-09-13T01:37:43.913Z,100.00
2022-09-13T01:48:17.325Z,100.00
2022-09-13T01:58:49.918Z,100.00
2022-09-13T02:09:21.203Z,100.00
2022-09-13T02:19:58.222Z,100.00
2022-09-13T02:30:21.073Z,100.00
2022-09-13T02:40:49.257Z,100.00
2022-09-13T02:51:10.691Z,100.00
2022-09-13T03:01:35.412Z,100.00
2022-09-13T03:12:24.976Z,100.00
2022-09-13T03:23:04.750Z,100.00
2022-09-13T03:33:44.274Z,100.00
2022-09-13T03:44:14.094Z,100.00
2022-09-13T03:54:38.623Z,100.00
2022-09-13T04:05:00.076Z,100.00
2022-09-13T04:15:21.894Z,100.00
2022-09-13T04:25:43.365Z,100.00
2022-09-13T04:36:04.949Z,100.00
2022-09-13T04:46:26.446Z,100.00
2022-09-13T04:56:48.802Z,100.00
2022-09-13T05:07:10.421Z,100.00
2022-09-13T05:17:32.089Z,100.00
2022-09-13T05:27:53.526Z,100.00
2022-09-13T05:38:14.982Z,100.00
2022-09-13T05:48:37.338Z,100.00
2022-09-13T05:58:59.193Z,100.00
2022-09-13T06:09:21.037Z,100.00
2022-09-13T06:19:42.624Z,100.00
2022-09-13T06:30:05.357Z,100.00
2022-09-13T06:40:26.883Z,100.00
2022-09-13T06:50:48.334Z,100.00
2022-09-13T07:01:20.129Z,100.00
2022-09-13T07:11:42.439Z,100.00
2022-09-13T07:22:04.906Z,100.00
2022-09-13T07:32:26.386Z,100.00
2022-09-13T07:42:47.919Z,100.00
2022-09-13T07:53:09.368Z,100.00
2022-09-13T08:03:31.406Z,100.00
2022-09-13T08:13:53.063Z,100.00
2022-09-13T08:24:21.291Z,100.00
2022-09-13T08:34:42.835Z,100.00
2022-09-13T08:45:04.567Z,100.00
2022-09-13T08:55:50.163Z,100.00
2022-09-13T09:06:17.099Z,97.97
2022-09-13T09:16:43.372Z,95.20
2022-09-13T09:27:15.731Z,92.93
2022-09-13T09:37:38.855Z,88.75
2022-09-13T09:48:09.399Z,82.64
2022-09-13T09:58:38.349Z,76.57
2022-09-13T10:09:02.710Z,75.09
2022-09-13T10:19:26.533Z,68.33
2022-09-13T10:29:51.995Z,70.35
2022-09-13T10:40:22.983Z,68.77
2022-09-13T10:51:05.903Z,66.47
2022-09-13T11:01:41.230Z,64.69
2022-09-13T11:12:18.534Z,64.42
2022-09-13T11:23:02.176Z,65.96
2022-09-13T11:33:53.252Z,66.26
2022-09-13T11:44:52.795Z,66.45
2022-09-13T11:55:18.838Z,65.87
2022-09-13T12:05:57.868Z,59.24
2022-09-13T12:16:48.782Z,59.42
2022-09-13T12:27:37.666Z,62.37
2022-09-13T12:38:11.796Z,62.87
2022-09-13T12:49:10.766Z,66.23
2022-09-13T12:59:53.400Z,62.10
2022-09-13T13:10:33.622Z,60.71
2022-09-13T13:20:55.014Z,57.46
2022-09-13T13:31:29.825Z,58.33
2022-09-13T13:42:01.625Z,59.50
2022-09-13T13:52:26.076Z,59.24
2022-09-13T14:02:50.492Z,57.06
2022-09-13T14:13:30.223Z,58.23
2022-09-13T14:24:11.970Z,62.29
2022-09-13T14:34:36.341Z,66.69
2022-09-13T14:45:05.385Z,67.32
2022-09-13T14:55:38.022Z,65.21
2022-09-13T15:06:01.236Z,62.85
2022-09-13T15:16:37.235Z,65.52
2022-09-13T15:27:03.267Z,62.60
2022-09-13T15:37:33.540Z,63.75
2022-09-13T15:47:54.997Z,63.46
2022-09-13T15:58:16.344Z,62.64
2022-09-13T16:08:38.646Z,61.95
2022-09-13T16:19:00.075Z,64.21
2022-09-13T16:29:21.502Z,64.54
2022-09-13T16:39:43.123Z,63.13
2022-09-13T16:50:06.279Z,64.29
2022-09-13T17:00:28.776Z,63.17
2022-09-13T17:10:50.127Z,64.98
2022-09-13T17:21:11.508Z,64.49
2022-09-13T17:31:32.942Z,65.93
2022-09-13T17:41:54.750Z,67.25
2022-09-13T17:52:16.102Z,69.41
2022-09-13T18:02:37.532Z,70.18
2022-09-13T18:12:58.982Z,72.48
2022-09-13T18:23:20.638Z,73.53
2022-09-13T18:33:42.236Z,74.49
2022-09-13T18:44:05.016Z,76.15
2022-09-13T18:54:26.387Z,76.53
2022-09-13T19:04:48.007Z,76.21
2022-09-13T19:15:10.216Z,76.82
2022-09-13T19:25:33.898Z,78.33
2022-09-13T19:35:55.237Z,77.28
2022-09-13T19:46:19.640Z,78.73
2022-09-13T19:56:42.699Z,78.17
2022-09-13T20:07:04.096Z,78.30
2022-09-13T20:17:25.510Z,80.38
2022-09-13T20:27:46.943Z,79.05
2022-09-13T20:38:08.300Z,79.84
2022-09-13T20:48:29.656Z,80.21
2022-09-13T20:58:57.462Z,80.77
2022-09-13T21:09:19.213Z,83.95
2022-09-13T21:19:40.633Z,86.52
2022-09-13T21:30:02.086Z,85.58
2022-09-13T21:40:23.547Z,86.23
2022-09-13T21:50:44.914Z,88.08
2022-09-13T22:01:06.395Z,87.64
2022-09-13T22:11:29.204Z,89.52
2022-09-13T22:21:53.710Z,90.70
2022-09-13T22:32:15.123Z,89.29
2022-09-13T22:42:36.456Z,90.74
2022-09-13T22:52:57.848Z,90.23
2022-09-13T23:03:19.282Z,91.41
2022-09-13T23:13:41.100Z,92.01
2022-09-13T23:24:04.199Z,92.89
2022-09-13T23:34:25.881Z,93.43
2022-09-13T23:44:47.285Z,94.34
2022-09-13T23:55:09.184Z,94.88
